sensor_id;sensor_type;location;lat;lon;timestamp;pressure;altitude;pressure_sealevel;temperature;humidity
51067;BME280;37112;45.892;-123.962;2023-03-01T00:01:33;100305.89;;;6.46;76.41
51067;BME280;37112;45.892;-123.962;2023-03-01T00:03:47;100310.17;;;6.45;75.82
51067;BME280;37112;45.892;-123.962;2023-03-01T00:06:01;100310.59;;;6.37;74.68
51067;BME280;37112;45.892;-123.962;2023-03-01T00:08:15;100313.88;;;6.29;74.51
51067;BME280;37112;45.892;-123.962;2023-03-01T00:10:28;100321.61;;;6.23;74.80
51067;BME280;37112;45.892;-123.962;2023-03-01T00:12:41;100322.90;;;6.22;75.29
51067;BME280;37112;45.892;-123.962;2023-03-01T00:14:54;100327.55;;;6.27;75.87
51067;BME280;37112;45.892;-123.962;2023-03-01T00:17:08;100337.45;;;6.30;75.97
51067;BME280;37112;45.892;-123.962;2023-03-01T00:19:21;100342.11;;;6.32;75.61
51067;BME280;37112;45.892;-123.962;2023-03-01T00:21:38;100350.16;;;6.30;74.74
51067;BME280;37112;45.892;-123.962;2023-03-01T00:23:52;100349.67;;;6.23;73.68
51067;BME280;37112;45.892;-123.962;2023-03-01T00:26:08;100356.09;;;6.21;74.00
51067;BME280;37112;45.892;-123.962;2023-03-01T00:28:22;100358.22;;;6.21;73.95
51067;BME280;37112;45.892;-123.962;2023-03-01T00:30:35;100356.72;;;6.17;73.12
51067;BME280;37112;45.892;-123.962;2023-03-01T00:32:48;100359.25;;;6.12;72.96
51067;BME280;37112;45.892;-123.962;2023-03-01T00:35:01;100362.60;;;6.09;73.20
51067;BME280;37112;45.892;-123.962;2023-03-01T00:37:15;100364.90;;;6.12;73.42
51067;BME280;37112;45.892;-123.962;2023-03-01T00:39:29;100369.95;;;6.07;72.94
51067;BME280;37112;45.892;-123.962;2023-03-01T00:41:42;100378.23;;;6.00;72.79
51067;BME280;37112;45.892;-123.962;2023-03-01T00:43:55;100385.60;;;5.91;72.85
51067;BME280;37112;45.892;-123.962;2023-03-01T00:46:10;100390.00;;;5.84;73.07
51067;BME280;37112;45.892;-123.962;2023-03-01T00:48:24;100395.64;;;5.74;73.18
51067;BME280;37112;45.892;-123.962;2023-03-01T00:50:37;100397.90;;;5.65;73.06
51067;BME280;37112;45.892;-123.962;2023-03-01T00:52:54;100397.88;;;5.58;73.13
51067;BME280;37112;45.892;-123.962;2023-03-01T00:55:10;100398.92;;;5.51;73.27
51067;BME280;37112;45.892;-123.962;2023-03-01T00:57:24;100397.52;;;5.45;73.37
51067;BME280;37112;45.892;-123.962;2023-03-01T00:59:37;100394.19;;;5.38;73.10
51067;BME280;37112;45.892;-123.962;2023-03-01T01:01:51;100396.23;;;5.32;73.48
51067;BME280;37112;45.892;-123.962;2023-03-01T01:04:06;100398.84;;;5.26;73.09
51067;BME280;37112;45.892;-123.962;2023-03-01T01:06:23;100401.10;;;5.19;73.49
51067;BME280;37112;45.892;-123.962;2023-03-01T01:08:37;100403.61;;;5.15;73.73
51067;BME280;37112;45.892;-123.962;2023-03-01T01:10:50;100409.54;;;5.13;73.52
51067;BME280;37112;45.892;-123.962;2023-03-01T01:13:03;100416.54;;;5.10;73.71
51067;BME280;37112;45.892;-123.962;2023-03-01T01:15:17;100418.59;;;5.08;73.73
51067;BME280;37112;45.892;-123.962;2023-03-01T01:17:29;100420.24;;;5.07;73.86
51067;BME280;37112;45.892;-123.962;2023-03-01T01:19:43;100421.50;;;5.06;73.99
51067;BME280;37112;45.892;-123.962;2023-03-01T01:21:56;100427.36;;;5.04;73.95
51067;BME280;37112;45.892;-123.962;2023-03-01T01:24:09;100434.42;;;5.04;74.19
51067;BME280;37112;45.892;-123.962;2023-03-01T01:26:25;100436.29;;;5.01;74.05
51067;BME280;37112;45.892;-123.962;2023-03-01T01:28:38;100441.52;;;4.99;73.93
51067;BME280;37112;45.892;-123.962;2023-03-01T01:30:52;100445.65;;;4.97;74.19
51067;BME280;37112;45.892;-123.962;2023-03-01T01:33:05;100449.98;;;4.95;74.24
51067;BME280;37112;45.892;-123.962;2023-03-01T01:35:18;100452.85;;;4.94;74.32
51067;BME280;37112;45.892;-123.962;2023-03-01T01:37:32;100454.63;;;4.90;74.14
51067;BME280;37112;45.892;-123.962;2023-03-01T01:39:46;100462.77;;;4.86;74.10
51067;BME280;37112;45.892;-123.962;2023-03-01T01:42:00;100468.53;;;4.83;74.24
51067;BME280;37112;45.892;-123.962;2023-03-01T01:44:18;100471.83;;;4.80;74.36
51067;BME280;37112;45.892;-123.962;2023-03-01T01:46:32;100478.15;;;4.77;74.35
51067;BME280;37112;45.892;-123.962;2023-03-01T01:48:52;100480.61;;;4.72;74.36
51067;BME280;37112;45.892;-123.962;2023-03-01T01:51:07;100488.23;;;4.68;74.62
51067;BME280;37112;45.892;-123.962;2023-03-01T01:53:22;100495.31;;;4.63;74.57
51067;BME280;37112;45.892;-123.962;2023-03-01T01:55:39;100507.81;;;4.59;74.59
51067;BME280;37112;45.892;-123.962;2023-03-01T01:57:56;100512.65;;;4.53;74.64
51067;BME280;37112;45.892;-123.962;2023-03-01T02:00:17;100520.41;;;4.49;74.70
51067;BME280;37112;45.892;-123.962;2023-03-01T02:02:31;100522.68;;;4.45;74.92
51067;BME280;37112;45.892;-123.962;2023-03-01T02:04:45;100526.64;;;4.39;74.90
51067;BME280;37112;45.892;-123.962;2023-03-01T02:07:04;100535.90;;;4.33;74.93
51067;BME280;37112;45.892;-123.962;2023-03-01T02:09:21;100538.39;;;4.28;75.06
51067;BME280;37112;45.892;-123.962;2023-03-01T02:11:36;100541.08;;;4.23;75.26
51067;BME280;37112;45.892;-123.962;2023-03-01T02:13:55;100546.72;;;4.18;75.22
51067;BME280;37112;45.892;-123.962;2023-03-01T02:16:11;100548.73;;;4.13;75.35
51067;BME280;37112;45.892;-123.962;2023-03-01T02:18:26;100551.48;;;4.10;75.63
51067;BME280;37112;45.892;-123.962;2023-03-01T02:20:48;100549.31;;;4.08;75.64
51067;BME280;37112;45.892;-123.962;2023-03-01T02:23:05;100554.38;;;4.04;75.78
51067;BME280;37112;45.892;-123.962;2023-03-01T02:28:01;100568.58;;;3.93;75.82
51067;BME280;37112;45.892;-123.962;2023-03-01T02:30:21;100575.23;;;3.88;76.00
51067;BME280;37112;45.892;-123.962;2023-03-01T02:32:37;100578.23;;;3.84;76.22
51067;BME280;37112;45.892;-123.962;2023-03-01T02:34:54;100581.12;;;3.83;76.43
51067;BME280;37112;45.892;-123.962;2023-03-01T02:37:11;100584.76;;;3.80;76.52
51067;BME280;37112;45.892;-123.962;2023-03-01T02:39:36;100592.26;;;3.77;76.84
51067;BME280;37112;45.892;-123.962;2023-03-01T02:41:55;100596.94;;;3.74;76.81
51067;BME280;37112;45.892;-123.962;2023-03-01T02:44:10;100600.76;;;3.71;76.85
51067;BME280;37112;45.892;-123.962;2023-03-01T02:46:26;100604.04;;;3.68;76.99
51067;BME280;37112;45.892;-123.962;2023-03-01T02:48:46;100612.17;;;3.62;77.12
51067;BME280;37112;45.892;-123.962;2023-03-01T02:51:09;100618.58;;;3.60;77.30
51067;BME280;37112;45.892;-123.962;2023-03-01T02:53:32;100616.68;;;3.59;77.40
51067;BME280;37112;45.892;-123.962;2023-03-01T02:55:47;100620.64;;;3.56;77.76
51067;BME280;37112;45.892;-123.962;2023-03-01T02:58:03;100617.71;;;3.55;78.09
51067;BME280;37112;45.892;-123.962;2023-03-01T03:00:21;100623.61;;;3.57;78.26
51067;BME280;37112;45.892;-123.962;2023-03-01T03:02:36;100622.45;;;3.55;78.34
51067;BME280;37112;45.892;-123.962;2023-03-01T03:04:56;100623.75;;;3.54;78.20
51067;BME280;37112;45.892;-123.962;2023-03-01T03:07:10;100627.30;;;3.53;78.26
51067;BME280;37112;45.892;-123.962;2023-03-01T03:09:24;100625.63;;;3.51;78.26
51067;BME280;37112;45.892;-123.962;2023-03-01T03:11:39;100630.85;;;3.47;78.34
51067;BME280;37112;45.892;-123.962;2023-03-01T03:13:53;100634.73;;;3.43;78.30
51067;BME280;37112;45.892;-123.962;2023-03-01T03:16:09;100640.22;;;3.41;78.33
51067;BME280;37112;45.892;-123.962;2023-03-01T03:18:24;100640.86;;;3.39;78.40
51067;BME280;37112;45.892;-123.962;2023-03-01T03:20:43;100642.89;;;3.36;78.41
51067;BME280;37112;45.892;-123.962;2023-03-01T03:22:59;100642.48;;;3.32;78.39
51067;BME280;37112;45.892;-123.962;2023-03-01T03:25:14;100650.73;;;3.28;78.24
51067;BME280;37112;45.892;-123.962;2023-03-01T03:27:30;100657.95;;;3.23;78.41
51067;BME280;37112;45.892;-123.962;2023-03-01T03:29:46;100658.91;;;3.21;78.49
51067;BME280;37112;45.892;-123.962;2023-03-01T03:32:00;100657.34;;;3.16;78.50
51067;BME280;37112;45.892;-123.962;2023-03-01T03:34:14;100655.92;;;3.12;78.53
51067;BME280;37112;45.892;-123.962;2023-03-01T03:36:29;100653.73;;;3.09;78.56
51067;BME280;37112;45.892;-123.962;2023-03-01T03:38:43;100652.33;;;3.04;78.49
51067;BME280;37112;45.892;-123.962;2023-03-01T03:41:04;100655.47;;;3.00;78.56
51067;BME280;37112;45.892;-123.962;2023-03-01T03:43:21;100656.48;;;2.97;78.63
51067;BME280;37112;45.892;-123.962;2023-03-01T03:45:36;100657.45;;;2.94;78.77
51067;BME280;37112;45.892;-123.962;2023-03-01T03:47:51;100653.16;;;2.92;78.75
51067;BME280;37112;45.892;-123.962;2023-03-01T03:50:05;100655.18;;;2.89;78.94
51067;BME280;37112;45.892;-123.962;2023-03-01T03:52:19;100653.71;;;2.86;78.80
51067;BME280;37112;45.892;-123.962;2023-03-01T03:54:33;100658.95;;;2.82;78.87
51067;BME280;37112;45.892;-123.962;2023-03-01T03:56:48;100667.45;;;2.79;78.87
51067;BME280;37112;45.892;-123.962;2023-03-01T03:59:02;100671.17;;;2.78;79.00
51067;BME280;37112;45.892;-123.962;2023-03-01T04:01:17;100677.83;;;2.74;79.08
51067;BME280;37112;45.892;-123.962;2023-03-01T04:03:32;100685.94;;;2.73;79.10
51067;BME280;37112;45.892;-123.962;2023-03-01T04:05:50;100684.26;;;2.70;79.09
51067;BME280;37112;45.892;-123.962;2023-03-01T04:08:06;100682.29;;;2.67;79.08
51067;BME280;37112;45.892;-123.962;2023-03-01T04:10:20;100690.45;;;2.65;79.14
51067;BME280;37112;45.892;-123.962;2023-03-01T04:12:34;100697.00;;;2.62;79.24
51067;BME280;37112;45.892;-123.962;2023-03-01T04:14:48;100703.45;;;2.59;79.21
51067;BME280;37112;45.892;-123.962;2023-03-01T04:17:03;100704.42;;;2.56;79.23
51067;BME280;37112;45.892;-123.962;2023-03-01T04:19:18;100709.08;;;2.53;79.30
51067;BME280;37112;45.892;-123.962;2023-03-01T04:21:32;100714.09;;;2.50;79.35
51067;BME280;37112;45.892;-123.962;2023-03-01T04:23:46;100722.39;;;2.48;79.43
51067;BME280;37112;45.892;-123.962;2023-03-01T04:26:03;100720.92;;;2.44;79.44
51067;BME280;37112;45.892;-123.962;2023-03-01T04:28:17;100727.02;;;2.41;79.37
51067;BME280;37112;45.892;-123.962;2023-03-01T04:30:36;100727.36;;;2.36;79.33
51067;BME280;37112;45.892;-123.962;2023-03-01T04:32:53;100727.95;;;2.34;79.44
51067;BME280;37112;45.892;-123.962;2023-03-01T04:35:08;100730.63;;;2.32;79.60
51067;BME280;37112;45.892;-123.962;2023-03-01T04:37:22;100735.64;;;2.29;79.48
51067;BME280;37112;45.892;-123.962;2023-03-01T04:39:42;100738.54;;;2.27;79.43
51067;BME280;37112;45.892;-123.962;2023-03-01T04:41:58;100744.21;;;2.24;79.41
51067;BME280;37112;45.892;-123.962;2023-03-01T04:44:12;100745.92;;;2.20;79.44
51067;BME280;37112;45.892;-123.962;2023-03-01T04:46:27;100750.80;;;2.15;79.54
51067;BME280;37112;45.892;-123.962;2023-03-01T04:48:45;100760.48;;;2.14;79.47
51067;BME280;37112;45.892;-123.962;2023-03-01T04:51:04;100766.46;;;2.13;79.79
51067;BME280;37112;45.892;-123.962;2023-03-01T04:53:20;100773.67;;;2.13;79.84
51067;BME280;37112;45.892;-123.962;2023-03-01T04:55:34;100779.16;;;2.11;79.78
51067;BME280;37112;45.892;-123.962;2023-03-01T04:57:47;100783.06;;;2.09;79.88
51067;BME280;37112;45.892;-123.962;2023-03-01T05:00:07;100791.67;;;2.08;80.12
51067;BME280;37112;45.892;-123.962;2023-03-01T05:02:31;100796.66;;;2.06;80.11
51067;BME280;37112;45.892;-123.962;2023-03-01T05:04:45;100801.10;;;2.04;80.21
51067;BME280;37112;45.892;-123.962;2023-03-01T05:07:04;100813.23;;;2.02;80.09
51067;BME280;37112;45.892;-123.962;2023-03-01T05:09:18;100820.34;;;1.99;80.00
51067;BME280;37112;45.892;-123.962;2023-03-01T05:11:32;100819.23;;;1.95;79.98
51067;BME280;37112;45.892;-123.962;2023-03-01T05:13:47;100820.31;;;1.93;80.25
51067;BME280;37112;45.892;-123.962;2023-03-01T05:16:02;100830.19;;;1.91;80.17
51067;BME280;37112;45.892;-123.962;2023-03-01T05:18:16;100829.94;;;1.88;80.19
51067;BME280;37112;45.892;-123.962;2023-03-01T05:20:31;100831.58;;;1.86;80.16
51067;BME280;37112;45.892;-123.962;2023-03-01T05:22:46;100840.11;;;1.82;80.01
51067;BME280;37112;45.892;-123.962;2023-03-01T05:25:01;100844.24;;;1.78;80.03
51067;BME280;37112;45.892;-123.962;2023-03-01T05:27:15;100844.58;;;1.73;79.96
51067;BME280;37112;45.892;-123.962;2023-03-01T05:29:30;100850.83;;;1.68;79.92
51067;BME280;37112;45.892;-123.962;2023-03-01T05:31:46;100849.39;;;1.64;79.91
51067;BME280;37112;45.892;-123.962;2023-03-01T05:34:00;100849.87;;;1.59;79.87
51067;BME280;37112;45.892;-123.962;2023-03-01T05:36:14;100853.18;;;1.53;79.91
51067;BME280;37112;45.892;-123.962;2023-03-01T05:38:28;100859.56;;;1.51;80.10
51067;BME280;37112;45.892;-123.962;2023-03-01T05:40:42;100862.27;;;1.47;80.22
51067;BME280;37112;45.892;-123.962;2023-03-01T05:42:57;100869.48;;;1.46;80.30
51067;BME280;37112;45.892;-123.962;2023-03-01T05:45:12;100876.23;;;1.43;80.27
51067;BME280;37112;45.892;-123.962;2023-03-01T05:47:25;100881.77;;;1.38;80.23
51067;BME280;37112;45.892;-123.962;2023-03-01T05:49:41;100884.48;;;1.35;80.33
51067;BME280;37112;45.892;-123.962;2023-03-01T05:51:55;100890.32;;;1.32;80.42
51067;BME280;37112;45.892;-123.962;2023-03-01T05:54:08;100894.30;;;1.28;80.51
51067;BME280;37112;45.892;-123.962;2023-03-01T05:56:22;100899.09;;;1.25;80.74
51067;BME280;37112;45.892;-123.962;2023-03-01T05:58:37;100901.20;;;1.24;80.94
51067;BME280;37112;45.892;-123.962;2023-03-01T06:00:51;100904.21;;;1.23;80.94
51067;BME280;37112;45.892;-123.962;2023-03-01T06:03:06;100906.49;;;1.22;81.14
51067;BME280;37112;45.892;-123.962;2023-03-01T06:05:19;100910.23;;;1.20;81.12
51067;BME280;37112;45.892;-123.962;2023-03-01T06:07:34;100907.48;;;1.19;81.30
51067;BME280;37112;45.892;-123.962;2023-03-01T06:09:48;100904.86;;;1.18;81.38
51067;BME280;37112;45.892;-123.962;2023-03-01T06:12:00;100909.09;;;1.17;81.45
51067;BME280;37112;45.892;-123.962;2023-03-01T06:14:14;100910.35;;;1.15;81.56
51067;BME280;37112;45.892;-123.962;2023-03-01T06:16:28;100913.69;;;1.15;81.78
51067;BME280;37112;45.892;-123.962;2023-03-01T06:18:41;100919.42;;;1.16;82.03
51067;BME280;37112;45.892;-123.962;2023-03-01T06:20:58;100923.08;;;1.18;82.10
51067;BME280;37112;45.892;-123.962;2023-03-01T06:23:11;100921.82;;;1.19;82.28
51067;BME280;37112;45.892;-123.962;2023-03-01T06:25:25;100924.95;;;1.20;82.40
51067;BME280;37112;45.892;-123.962;2023-03-01T06:27:39;100925.66;;;1.19;82.50
51067;BME280;37112;45.892;-123.962;2023-03-01T06:29:53;100923.55;;;1.19;82.53
51067;BME280;37112;45.892;-123.962;2023-03-01T06:32:06;100926.04;;;1.18;82.32
51067;BME280;37112;45.892;-123.962;2023-03-01T06:34:20;100942.16;;;1.16;82.28
51067;BME280;37112;45.892;-123.962;2023-03-01T06:38:43;100959.89;;;1.07;82.05
51067;BME280;37112;45.892;-123.962;2023-03-01T06:40:56;100959.12;;;1.03;82.02
51067;BME280;37112;45.892;-123.962;2023-03-01T06:43:09;100967.41;;;1.00;82.24
51067;BME280;37112;45.892;-123.962;2023-03-01T06:45:36;100985.81;;;0.98;82.29
51067;BME280;37112;45.892;-123.962;2023-03-01T06:47:50;100987.27;;;0.96;82.27
51067;BME280;37112;45.892;-123.962;2023-03-01T06:50:03;100989.55;;;0.96;82.56
51067;BME280;37112;45.892;-123.962;2023-03-01T06:52:16;100995.00;;;0.94;82.56
51067;BME280;37112;45.892;-123.962;2023-03-01T06:54:29;101001.66;;;0.94;82.74
51067;BME280;37112;45.892;-123.962;2023-03-01T06:56:42;101002.02;;;0.92;82.73
51067;BME280;37112;45.892;-123.962;2023-03-01T06:58:55;101003.77;;;0.93;82.89
51067;BME280;37112;45.892;-123.962;2023-03-01T07:01:11;101002.34;;;0.95;83.12
51067;BME280;37112;45.892;-123.962;2023-03-01T07:03:24;101007.06;;;0.95;83.13
51067;BME280;37112;45.892;-123.962;2023-03-01T07:05:38;101004.78;;;0.95;83.11
51067;BME280;37112;45.892;-123.962;2023-03-01T07:07:51;101007.43;;;0.93;82.96
51067;BME280;37112;45.892;-123.962;2023-03-01T07:10:07;101005.70;;;0.92;83.19
51067;BME280;37112;45.892;-123.962;2023-03-01T07:12:21;101010.42;;;0.92;83.25
51067;BME280;37112;45.892;-123.962;2023-03-01T07:14:34;101023.01;;;0.92;83.36
51067;BME280;37112;45.892;-123.962;2023-03-01T07:16:48;101030.90;;;0.91;83.26
51067;BME280;37112;45.892;-123.962;2023-03-01T07:19:01;101035.15;;;0.89;83.24
51067;BME280;37112;45.892;-123.962;2023-03-01T07:21:16;101045.30;;;0.89;83.36
51067;BME280;37112;45.892;-123.962;2023-03-01T07:23:29;101045.19;;;0.87;83.33
51067;BME280;37112;45.892;-123.962;2023-03-01T07:25:42;101055.17;;;0.84;83.37
51067;BME280;37112;45.892;-123.962;2023-03-01T07:27:55;101060.31;;;0.81;83.45
51067;BME280;37112;45.892;-123.962;2023-03-01T07:30:14;101069.65;;;0.79;83.37
51067;BME280;37112;45.892;-123.962;2023-03-01T07:32:27;101076.15;;;0.76;83.53
51067;BME280;37112;45.892;-123.962;2023-03-01T07:34:41;101069.30;;;0.77;83.83
51067;BME280;37112;45.892;-123.962;2023-03-01T07:36:55;101073.52;;;0.78;83.87
51067;BME280;37112;45.892;-123.962;2023-03-01T07:39:09;101069.85;;;0.76;83.71
51067;BME280;37112;45.892;-123.962;2023-03-01T07:41:23;101072.05;;;0.72;83.56
51067;BME280;37112;45.892;-123.962;2023-03-01T07:43:36;101084.52;;;0.69;83.58
51067;BME280;37112;45.892;-123.962;2023-03-01T07:45:49;101083.86;;;0.67;83.77
51067;BME280;37112;45.892;-123.962;2023-03-01T07:48:03;101085.96;;;0.67;83.94
51067;BME280;37112;45.892;-123.962;2023-03-01T07:50:16;101090.51;;;0.67;84.08
51067;BME280;37112;45.892;-123.962;2023-03-01T07:52:29;101096.09;;;0.67;84.22
51067;BME280;37112;45.892;-123.962;2023-03-01T07:54:45;101097.44;;;0.69;84.49
51067;BME280;37112;45.892;-123.962;2023-03-01T07:56:58;101097.60;;;0.71;84.56
51067;BME280;37112;45.892;-123.962;2023-03-01T07:59:12;101097.59;;;0.72;84.53
51067;BME280;37112;45.892;-123.962;2023-03-01T08:01:25;101095.84;;;0.72;84.74
51067;BME280;37112;45.892;-123.962;2023-03-01T08:03:38;101088.48;;;0.72;84.62
51067;BME280;37112;45.892;-123.962;2023-03-01T08:05:52;101099.52;;;0.71;84.58
51067;BME280;37112;45.892;-123.962;2023-03-01T08:08:07;101096.58;;;0.70;84.65
51067;BME280;37112;45.892;-123.962;2023-03-01T08:10:22;101095.86;;;0.70;84.71
51067;BME280;37112;45.892;-123.962;2023-03-01T08:12:35;101098.17;;;0.68;85.02
51067;BME280;37112;45.892;-123.962;2023-03-01T08:14:49;101101.33;;;0.68;84.96
51067;BME280;37112;45.892;-123.962;2023-03-01T08:17:01;101106.40;;;0.67;85.03
51067;BME280;37112;45.892;-123.962;2023-03-01T08:19:15;101113.06;;;0.67;85.06
51067;BME280;37112;45.892;-123.962;2023-03-01T08:21:28;101113.23;;;0.66;84.98
51067;BME280;37112;45.892;-123.962;2023-03-01T08:23:41;101118.83;;;0.67;84.98
51067;BME280;37112;45.892;-123.962;2023-03-01T08:25:55;101125.11;;;0.67;84.92
51067;BME280;37112;45.892;-123.962;2023-03-01T08:28:08;101124.41;;;0.67;84.97
51067;BME280;37112;45.892;-123.962;2023-03-01T08:30:22;101119.17;;;0.67;85.00
51067;BME280;37112;45.892;-123.962;2023-03-01T08:32:40;101127.04;;;0.67;84.96
51067;BME280;37112;45.892;-123.962;2023-03-01T08:34:53;101129.48;;;0.67;84.93
51067;BME280;37112;45.892;-123.962;2023-03-01T08:37:07;101132.98;;;0.66;84.89
51067;BME280;37112;45.892;-123.962;2023-03-01T08:39:22;101137.71;;;0.66;84.88
51067;BME280;37112;45.892;-123.962;2023-03-01T08:41:35;101136.31;;;0.66;84.80
51067;BME280;37112;45.892;-123.962;2023-03-01T08:43:48;101132.68;;;0.65;84.80
51067;BME280;37112;45.892;-123.962;2023-03-01T08:46:04;101140.05;;;0.63;84.55
51067;BME280;37112;45.892;-123.962;2023-03-01T08:48:18;101141.83;;;0.61;84.57
51067;BME280;37112;45.892;-123.962;2023-03-01T08:50:32;101139.62;;;0.59;84.41
51067;BME280;37112;45.892;-123.962;2023-03-01T08:52:45;101138.13;;;0.55;84.22
51067;BME280;37112;45.892;-123.962;2023-03-01T08:54:58;101137.83;;;0.51;84.34
51067;BME280;37112;45.892;-123.962;2023-03-01T08:57:12;101133.54;;;0.49;84.43
51067;BME280;37112;45.892;-123.962;2023-03-01T08:59:25;101138.63;;;0.47;84.66
51067;BME280;37112;45.892;-123.962;2023-03-01T09:01:40;101130.95;;;0.46;84.84
51067;BME280;37112;45.892;-123.962;2023-03-01T09:03:54;101133.39;;;0.45;84.97
51067;BME280;37112;45.892;-123.962;2023-03-01T09:06:09;101141.61;;;0.45;85.09
51067;BME280;37112;45.892;-123.962;2023-03-01T09:08:22;101146.48;;;0.46;85.48
51067;BME280;37112;45.892;-123.962;2023-03-01T09:10:39;101139.16;;;0.47;85.45
51067;BME280;37112;45.892;-123.962;2023-03-01T09:12:53;101136.89;;;0.47;85.40
51067;BME280;37112;45.892;-123.962;2023-03-01T09:15:11;101146.83;;;0.47;85.48
51067;BME280;37112;45.892;-123.962;2023-03-01T09:17:24;101169.55;;;0.46;85.53
51067;BME280;37112;45.892;-123.962;2023-03-01T09:19:38;101169.90;;;0.46;85.58
51067;BME280;37112;45.892;-123.962;2023-03-01T09:21:51;101158.57;;;0.45;85.46
51067;BME280;37112;45.892;-123.962;2023-03-01T09:24:06;101155.83;;;0.42;85.32
51067;BME280;37112;45.892;-123.962;2023-03-01T09:26:21;101153.62;;;0.39;85.11
51067;BME280;37112;45.892;-123.962;2023-03-01T09:28:34;101158.77;;;0.35;85.02
51067;BME280;37112;45.892;-123.962;2023-03-01T09:30:47;101161.27;;;0.32;85.01
51067;BME280;37112;45.892;-123.962;2023-03-01T09:33:01;101155.85;;;0.31;85.30
51067;BME280;37112;45.892;-123.962;2023-03-01T09:35:14;101157.78;;;0.31;85.47
51067;BME280;37112;45.892;-123.962;2023-03-01T09:37:28;101152.38;;;0.30;85.44
51067;BME280;37112;45.892;-123.962;2023-03-01T09:39:43;101164.62;;;0.30;85.44
51067;BME280;37112;45.892;-123.962;2023-03-01T09:42:01;101171.30;;;0.27;85.30
51067;BME280;37112;45.892;-123.962;2023-03-01T09:46:45;101191.31;;;0.21;85.09
51067;BME280;37112;45.892;-123.962;2023-03-01T09:49:03;101196.42;;;0.19;85.27
51067;BME280;37112;45.892;-123.962;2023-03-01T09:51:22;101208.86;;;0.17;85.30
51067;BME280;37112;45.892;-123.962;2023-03-01T09:53:36;101212.02;;;0.15;85.26
51067;BME280;37112;45.892;-123.962;2023-03-01T09:55:55;101214.29;;;0.15;85.50
51067;BME280;37112;45.892;-123.962;2023-03-01T09:58:31;101227.73;;;0.16;85.52
51067;BME280;37112;45.892;-123.962;2023-03-01T10:00:49;101243.63;;;0.16;85.48
51067;BME280;37112;45.892;-123.962;2023-03-01T10:03:08;101249.58;;;0.16;85.36
51067;BME280;37112;45.892;-123.962;2023-03-01T10:05:36;101258.48;;;0.16;85.34
51067;BME280;37112;45.892;-123.962;2023-03-01T10:07:59;101259.52;;;0.15;85.27
51067;BME280;37112;45.892;-123.962;2023-03-01T10:10:27;101259.71;;;0.14;85.32
51067;BME280;37112;45.892;-123.962;2023-03-01T10:12:42;101265.35;;;0.12;85.10
51067;BME280;37112;45.892;-123.962;2023-03-01T10:15:04;101272.73;;;0.09;85.05
51067;BME280;37112;45.892;-123.962;2023-03-01T10:17:26;101274.31;;;0.07;85.25
51067;BME280;37112;45.892;-123.962;2023-03-01T10:19:42;101285.68;;;0.06;85.35
51067;BME280;37112;45.892;-123.962;2023-03-01T10:21:56;101293.92;;;0.04;85.11
51067;BME280;37112;45.892;-123.962;2023-03-01T10:24:15;101306.01;;;0.02;85.21
51067;BME280;37112;45.892;-123.962;2023-03-01T10:26:42;101316.50;;;0.00;85.29
51067;BME280;37112;45.892;-123.962;2023-03-01T10:29:04;101313.20;;;-0.01;85.26
51067;BME280;37112;45.892;-123.962;2023-03-01T10:31:22;101315.48;;;-0.03;85.24
51067;BME280;37112;45.892;-123.962;2023-03-01T10:33:40;101314.66;;;-0.05;85.25
51067;BME280;37112;45.892;-123.962;2023-03-01T10:35:54;101316.44;;;-0.07;85.19
51067;BME280;37112;45.892;-123.962;2023-03-01T10:38:09;101315.76;;;-0.09;85.23
51067;BME280;37112;45.892;-123.962;2023-03-01T10:40:23;101318.39;;;-0.10;85.32
51067;BME280;37112;45.892;-123.962;2023-03-01T10:42:38;101320.85;;;-0.11;85.36
51067;BME280;37112;45.892;-123.962;2023-03-01T10:44:52;101319.64;;;-0.11;85.39
51067;BME280;37112;45.892;-123.962;2023-03-01T10:47:12;101322.45;;;-0.13;85.55
51067;BME280;37112;45.892;-123.962;2023-03-01T10:49:26;101326.98;;;-0.13;85.70
51067;BME280;37112;45.892;-123.962;2023-03-01T10:51:40;101326.32;;;-0.15;85.63
51067;BME280;37112;45.892;-123.962;2023-03-01T10:53:54;101331.90;;;-0.14;85.65
51067;BME280;37112;45.892;-123.962;2023-03-01T10:56:09;101332.60;;;-0.15;85.72
51067;BME280;37112;45.892;-123.962;2023-03-01T10:58:24;101334.52;;;-0.15;85.80
51067;BME280;37112;45.892;-123.962;2023-03-01T11:00:51;101329.45;;;-0.16;85.83
51067;BME280;37112;45.892;-123.962;2023-03-01T11:03:13;101327.21;;;-0.18;85.81
51067;BME280;37112;45.892;-123.962;2023-03-01T11:05:27;101324.27;;;-0.19;85.83
51067;BME280;37112;45.892;-123.962;2023-03-01T11:07:49;101326.04;;;-0.20;85.72
51067;BME280;37112;45.892;-123.962;2023-03-01T11:10:15;101327.81;;;-0.21;86.06
51067;BME280;37112;45.892;-123.962;2023-03-01T11:12:30;101330.93;;;-0.20;86.26
51067;BME280;37112;45.892;-123.962;2023-03-01T11:14:49;101331.09;;;-0.19;86.32
51067;BME280;37112;45.892;-123.962;2023-03-01T11:17:05;101323.41;;;-0.19;86.26
51067;BME280;37112;45.892;-123.962;2023-03-01T11:19:21;101326.21;;;-0.20;86.18
51067;BME280;37112;45.892;-123.962;2023-03-01T11:21:35;101329.71;;;-0.20;86.29
51067;BME280;37112;45.892;-123.962;2023-03-01T11:23:49;101332.48;;;-0.20;86.26
51067;BME280;37112;45.892;-123.962;2023-03-01T11:26:05;101339.10;;;-0.18;86.38
51067;BME280;37112;45.892;-123.962;2023-03-01T11:28:23;101342.95;;;-0.19;86.38
51067;BME280;37112;45.892;-123.962;2023-03-01T11:30:38;101344.89;;;-0.20;86.01
51067;BME280;37112;45.892;-123.962;2023-03-01T11:33:03;101358.19;;;-0.23;85.76
51067;BME280;37112;45.892;-123.962;2023-03-01T11:35:20;101354.07;;;-0.28;85.85